createdAt,value
2023-03-05T00:00:17.429Z,2.09
2023-03-05T00:02:43.991Z,2.09
2023-03-05T00:05:11.364Z,2.09
2023-03-05T00:07:37.829Z,2.09
2023-03-05T00:10:05.831Z,2.07
2023-03-05T00:12:32.947Z,2.07
2023-03-05T00:14:59.452Z,2.07
2023-03-05T00:17:25.938Z,2.07
2023-03-05T00:19:52.414Z,2.06
2023-03-05T00:22:18.976Z,2.04
2023-03-05T00:24:45.432Z,2.02
2023-03-05T00:27:11.903Z,2.01
2023-03-05T00:29:38.364Z,2.00
2023-03-05T00:32:05.019Z,1.99
2023-03-05T00:34:31.585Z,1.97
2023-03-05T00:36:58.080Z,1.95
2023-03-05T00:39:24.580Z,1.92
2023-03-05T00:41:51.144Z,1.92
2023-03-05T00:44:17.735Z,1.90
2023-03-05T00:46:44.360Z,1.90
2023-03-05T00:49:10.871Z,1.90
2023-03-05T00:51:37.458Z,1.90
2023-03-05T00:54:05.103Z,1.89
2023-03-05T00:56:31.589Z,1.89
2023-03-05T00:58:58.113Z,1.89
2023-03-05T01:01:25.718Z,1.88
2023-03-05T01:03:52.312Z,1.87
2023-03-05T01:06:18.825Z,1.88
2023-03-05T01:08:45.753Z,1.89
2023-03-05T01:11:12.341Z,1.91
2023-03-05T01:13:38.937Z,1.90
2023-03-05T01:16:05.593Z,1.91
2023-03-05T01:18:32.098Z,1.91
2023-03-05T01:20:58.642Z,1.89
2023-03-05T01:23:25.140Z,1.89
2023-03-05T01:25:56.093Z,1.88
2023-03-05T01:28:23.239Z,1.88
2023-03-05T01:30:49.865Z,1.90
2023-03-05T01:33:16.459Z,1.91
2023-03-05T01:35:45.582Z,1.93
2023-03-05T01:38:12.081Z,1.95
2023-03-05T01:40:38.571Z,1.97
2023-03-05T01:43:20.227Z,2.01
2023-03-05T01:46:22.318Z,2.05
2023-03-05T01:49:08.916Z,2.09
2023-03-05T01:51:41.746Z,2.10
2023-03-05T01:54:11.596Z,2.11
2023-03-05T01:56:40.026Z,2.13
2023-03-05T01:59:07.043Z,2.14
2023-03-05T02:01:39.597Z,2.16
2023-03-05T02:04:08.006Z,2.18
2023-03-05T02:06:34.922Z,2.19
2023-03-05T02:09:01.414Z,2.21
2023-03-05T02:11:28.071Z,2.23
2023-03-05T02:13:56.353Z,2.23
2023-03-05T02:16:22.818Z,2.22
2023-03-05T02:18:49.317Z,2.23
2023-03-05T02:21:27.525Z,2.23
2023-03-05T02:23:54.360Z,2.24
2023-03-05T02:26:20.908Z,2.25
2023-03-05T02:28:53.834Z,2.26
2023-03-05T02:31:23.662Z,2.27
2023-03-05T02:33:51.189Z,2.29
2023-03-05T02:36:18.662Z,2.30
2023-03-05T02:38:46.414Z,2.32
2023-03-05T02:41:13.970Z,2.33
2023-03-05T02:43:41.004Z,2.33
2023-03-05T02:46:08.311Z,2.33
2023-03-05T02:48:34.832Z,2.34
2023-03-05T02:51:03.066Z,2.36
2023-03-05T02:53:29.556Z,2.37
2023-03-05T02:55:56.068Z,2.37
2023-03-05T02:58:22.540Z,2.38
2023-03-05T03:00:49.064Z,2.38
2023-03-05T03:03:16.256Z,2.39
2023-03-05T03:05:42.798Z,2.41
2023-03-05T03:08:09.305Z,2.41
2023-03-05T03:10:35.833Z,2.41
2023-03-05T03:13:02.744Z,2.41
2023-03-05T03:15:29.281Z,2.42
2023-03-05T03:17:55.878Z,2.44
2023-03-05T03:20:23.073Z,2.46
2023-03-05T03:22:49.645Z,2.48
2023-03-05T03:25:18.606Z,2.49
2023-03-05T03:27:45.220Z,2.51
2023-03-05T03:30:13.111Z,2.52
2023-03-05T03:32:39.641Z,2.53
2023-03-05T03:35:07.346Z,2.53
2023-03-05T03:37:33.904Z,2.54
2023-03-05T03:40:00.372Z,2.54
2023-03-05T03:42:27.028Z,2.54
2023-03-05T03:44:53.503Z,2.53
2023-03-05T03:47:20.008Z,2.54
2023-03-05T03:49:46.475Z,2.53
2023-03-05T03:52:12.999Z,2.53
2023-03-05T03:54:39.560Z,2.52
2023-03-05T03:57:06.165Z,2.53
2023-03-05T03:59:32.847Z,2.54
2023-03-05T04:01:59.340Z,2.55
2023-03-05T04:04:25.868Z,2.55
2023-03-05T04:06:52.414Z,2.56
2023-03-05T04:09:18.885Z,2.55
2023-03-05T04:11:45.377Z,2.56
2023-03-05T04:14:12.027Z,2.55
2023-03-05T04:16:38.572Z,2.55
2023-03-05T04:19:05.057Z,2.54
2023-03-05T04:21:31.566Z,2.55
2023-03-05T04:23:58.056Z,2.55
2023-03-05T04:26:24.571Z,2.55
2023-03-05T04:28:51.044Z,2.54
2023-03-05T04:31:17.568Z,2.54
2023-03-05T04:33:44.137Z,2.54
2023-03-05T04:36:10.610Z,2.54
2023-03-05T04:38:37.113Z,2.53
2023-03-05T04:41:03.697Z,2.54
2023-03-05T04:43:30.166Z,2.54
2023-03-05T04:45:56.666Z,2.55
2023-03-05T04:48:23.216Z,2.54
2023-03-05T04:50:49.728Z,2.54
2023-03-05T04:53:16.380Z,2.55
2023-03-05T04:55:43.847Z,2.56
2023-03-05T04:58:10.383Z,2.57
2023-03-05T05:00:36.861Z,2.59
2023-03-05T05:03:03.502Z,2.59
2023-03-05T05:05:30.093Z,2.59
2023-03-05T05:07:58.081Z,2.59
2023-03-05T05:10:25.921Z,2.59
2023-03-05T05:12:52.436Z,2.59
2023-03-05T05:15:19.630Z,2.61
2023-03-05T05:17:47.082Z,2.62
2023-03-05T05:20:15.540Z,2.64
2023-03-05T05:22:42.654Z,2.64
2023-03-05T05:25:10.264Z,2.65
2023-03-05T05:27:39.014Z,2.67
2023-03-05T05:30:06.197Z,2.68
2023-03-05T05:32:32.708Z,2.70
2023-03-05T05:34:59.508Z,2.72
2023-03-05T05:37:27.329Z,2.74
2023-03-05T05:39:54.108Z,2.75
2023-03-05T05:42:22.524Z,2.77
2023-03-05T05:44:49.339Z,2.80
2023-03-05T05:47:17.514Z,2.83
2023-03-05T05:49:44.118Z,2.87
2023-03-05T05:52:10.900Z,2.90
2023-03-05T05:54:38.131Z,2.93
2023-03-05T05:57:04.914Z,2.95
2023-03-05T05:59:31.408Z,2.97
2023-03-05T06:01:58.005Z,2.99
2023-03-05T06:04:24.509Z,2.99
2023-03-05T06:06:50.986Z,3.00
2023-03-05T06:09:17.777Z,3.02
2023-03-05T06:11:44.253Z,3.03
2023-03-05T06:14:12.196Z,3.04
2023-03-05T06:16:39.445Z,3.03
2023-03-05T06:19:06.259Z,3.05
2023-03-05T06:21:32.960Z,3.06
2023-03-05T06:23:59.480Z,3.07
2023-03-05T06:26:26.279Z,3.09
2023-03-05T06:28:53.228Z,3.12
2023-03-05T06:31:25.084Z,3.15
2023-03-05T06:33:52.855Z,3.17
2023-03-05T06:36:21.368Z,3.21
2023-03-05T06:38:49.030Z,3.23
2023-03-05T06:41:22.103Z,3.27
2023-03-05T06:43:49.049Z,3.32
2023-03-05T06:46:21.172Z,3.36
2023-03-05T06:48:48.263Z,3.42
2023-03-05T06:51:14.693Z,3.47
2023-03-05T06:53:41.558Z,3.52
2023-03-05T06:56:08.101Z,3.54
2023-03-05T06:58:34.582Z,3.58
2023-03-05T07:01:01.129Z,3.62
2023-03-05T07:03:27.587Z,3.64
2023-03-05T07:05:54.066Z,3.64
2023-03-05T07:08:20.539Z,3.64
2023-03-05T07:10:47.010Z,3.68
2023-03-05T07:13:13.542Z,3.70
2023-03-05T07:15:41.047Z,3.72
2023-03-05T07:18:07.740Z,3.73
2023-03-05T07:20:35.668Z,3.75
2023-03-05T07:23:02.589Z,3.76
2023-03-05T07:25:29.076Z,3.78
2023-03-05T07:27:55.700Z,3.80
2023-03-05T07:30:22.543Z,3.84
2023-03-05T07:32:49.024Z,3.84
2023-03-05T07:35:15.593Z,3.85
2023-03-05T07:37:42.100Z,3.90
2023-03-05T07:40:09.417Z,3.93
2023-03-05T07:42:36.094Z,3.96
2023-03-05T07:45:02.699Z,3.99
2023-03-05T07:47:29.203Z,4.01
2023-03-05T07:49:55.704Z,4.04
2023-03-05T07:52:22.274Z,4.07
2023-03-05T07:54:48.745Z,4.11
2023-03-05T07:57:15.340Z,4.14
2023-03-05T07:59:41.858Z,4.17
2023-03-05T08:02:11.509Z,4.22
2023-03-05T08:04:38.054Z,4.27
2023-03-05T08:07:04.898Z,4.30
2023-03-05T08:09:31.415Z,4.32
2023-03-05T08:11:57.884Z,4.35
2023-03-05T08:14:24.362Z,4.41
2023-03-05T08:16:50.874Z,4.43
2023-03-05T08:19:18.387Z,4.45
2023-03-05T08:21:45.772Z,4.46
2023-03-05T08:24:12.989Z,4.45
2023-03-05T08:26:40.782Z,4.43
2023-03-05T08:29:08.770Z,4.42
2023-03-05T08:31:35.805Z,4.42
2023-03-05T08:34:03.416Z,4.45
2023-03-05T08:36:30.387Z,4.49
2023-03-05T08:38:56.896Z,4.50
2023-03-05T08:41:23.394Z,4.52
2023-03-05T08:43:49.885Z,4.54
2023-03-05T08:46:17.265Z,4.58
2023-03-05T08:48:43.961Z,4.61
2023-03-05T08:51:16.715Z,4.66
2023-03-05T08:53:45.097Z,4.75
2023-03-05T08:56:11.666Z,4.85
2023-03-05T08:58:38.626Z,4.95
2023-03-05T09:01:05.442Z,5.03
2023-03-05T09:03:32.643Z,5.08
2023-03-05T09:06:01.208Z,5.14
2023-03-05T09:08:28.067Z,5.20
2023-03-05T09:10:55.062Z,5.19
2023-03-05T09:13:21.549Z,5.14
2023-03-05T09:15:57.791Z,5.13
2023-03-05T09:18:24.990Z,5.14
2023-03-05T09:20:51.466Z,5.19
2023-03-05T09:23:18.159Z,5.25
2023-03-05T09:25:44.648Z,5.32
2023-03-05T09:28:11.363Z,5.35
2023-03-05T09:30:38.832Z,5.43
2023-03-05T09:33:05.505Z,5.55
2023-03-05T09:35:35.828Z,5.65
2023-03-05T09:38:03.630Z,5.71
2023-03-05T09:40:53.356Z,5.75
2023-03-05T09:43:25.469Z,5.77
2023-03-05T09:46:27.476Z,5.77
2023-03-05T09:49:06.935Z,5.81
2023-03-05T09:51:38.372Z,5.87
2023-03-05T09:54:12.366Z,5.94
2023-03-05T09:56:47.004Z,5.98
2023-03-05T09:59:28.549Z,6.06
2023-03-05T10:02:05.114Z,6.19
2023-03-05T10:05:12.019Z,6.30
2023-03-05T10:07:41.739Z,6.40
2023-03-05T10:10:11.116Z,6.48
2023-03-05T10:12:55.448Z,6.61
2023-03-05T10:15:44.671Z,6.77
2023-03-05T10:18:29.984Z,6.91
2023-03-05T10:21:01.011Z,6.90
2023-03-05T10:23:31.401Z,6.91
2023-03-05T10:26:07.329Z,6.92
2023-03-05T10:28:58.045Z,6.94
2023-03-05T10:31:41.015Z,7.02
2023-03-05T10:34:22.798Z,7.04
2023-03-05T10:36:52.103Z,7.03
2023-03-05T10:39:37.230Z,7.00
2023-03-05T10:42:24.322Z,6.97
2023-03-05T10:44:59.518Z,6.98
2023-03-05T10:47:31.592Z,6.95
2023-03-05T10:50:00.064Z,6.94
2023-03-05T10:52:36.107Z,6.96
2023-03-05T10:55:13.655Z,7.00
2023-03-05T10:57:40.205Z,7.04
2023-03-05T11:00:06.640Z,7.01
2023-03-05T11:02:34.672Z,7.03
2023-03-05T11:05:01.213Z,7.04
2023-03-05T11:07:35.780Z,7.04
2023-03-05T11:10:05.202Z,7.09
2023-03-05T11:12:37.636Z,7.09
2023-03-05T11:15:27.498Z,7.05
2023-03-05T11:18:08.165Z,6.96
2023-03-05T11:20:36.536Z,6.87
2023-03-05T11:23:06.066Z,6.81
2023-03-05T11:25:49.683Z,6.76
2023-03-05T11:28:32.286Z,6.71
2023-03-05T11:31:30.189Z,6.70
2023-03-05T11:33:56.631Z,6.75
2023-03-05T11:36:29.489Z,6.79
2023-03-05T11:38:58.578Z,6.86
2023-03-05T11:41:31.161Z,6.88
2023-03-05T11:44:00.969Z,6.89
2023-03-05T11:46:28.362Z,6.88
2023-03-05T11:48:56.185Z,6.80
2023-03-05T11:51:30.555Z,6.74
2023-03-05T11:54:05.373Z,6.66
2023-03-05T11:56:35.845Z,6.65
2023-03-05T11:59:11.468Z,6.69
2023-03-05T12:01:45.959Z,6.96
2023-03-05T12:04:12.526Z,7.69
2023-03-05T12:06:43.191Z,8.33
2023-03-05T12:09:21.371Z,8.81
2023-03-05T12:11:52.082Z,9.12
2023-03-05T12:14:46.291Z,9.35
2023-03-05T12:17:21.706Z,9.29
2023-03-05T12:20:26.715Z,9.16
2023-03-05T12:22:53.443Z,9.00
2023-03-05T12:25:34.784Z,9.09
2023-03-05T12:28:02.208Z,9.15
2023-03-05T12:30:48.593Z,9.03
2023-03-05T12:33:40.395Z,9.13
2023-03-05T12:36:34.172Z,9.23
2023-03-05T12:39:00.799Z,9.08
2023-03-05T12:41:32.111Z,8.99
2023-03-05T12:44:06.645Z,9.01
2023-03-05T12:46:42.076Z,9.03
2023-03-05T12:49:20.688Z,9.16
2023-03-05T12:51:49.149Z,9.24
2023-03-05T12:54:16.496Z,9.35
2023-03-05T12:56:46.357Z,9.47
2023-03-05T12:59:15.675Z,9.54
2023-03-05T13:01:58.770Z,9.50
2023-03-05T13:04:30.388Z,9.37
2023-03-05T13:07:01.165Z,9.33
2023-03-05T13:09:30.040Z,9.33
2023-03-05T13:11:58.503Z,9.44
2023-03-05T13:14:30.844Z,9.39
2023-03-05T13:16:57.599Z,9.19
2023-03-05T13:19:24.221Z,8.98
2023-03-05T13:22:01.997Z,8.72
2023-03-05T13:24:29.574Z,8.46
2023-03-05T13:26:56.848Z,8.28
2023-03-05T13:29:26.320Z,8.14
2023-03-05T13:31:57.562Z,8.01
2023-03-05T13:34:46.563Z,7.91
2023-03-05T13:37:17.893Z,7.83
2023-03-05T13:39:49.385Z,7.73
2023-03-05T13:42:15.843Z,7.58
2023-03-05T13:44:43.111Z,7.44
2023-03-05T13:47:17.917Z,7.34
2023-03-05T13:49:45.194Z,7.24
2023-03-05T13:52:11.987Z,7.22
2023-03-05T13:54:40.087Z,7.20
2023-03-05T13:57:22.483Z,7.18
2023-03-05T13:59:52.832Z,7.13
2023-03-05T14:02:20.509Z,7.07
2023-03-05T14:04:47.778Z,6.97
2023-03-05T14:07:20.630Z,6.86
2023-03-05T14:09:50.412Z,6.73
2023-03-05T14:12:22.877Z,6.60
2023-03-05T14:14:49.983Z,6.47
2023-03-05T14:17:30.185Z,6.34
2023-03-05T14:20:11.635Z,6.21
2023-03-05T14:22:40.598Z,6.15
2023-03-05T14:25:28.131Z,6.09
2023-03-05T14:27:54.693Z,6.03
2023-03-05T14:30:23.064Z,6.00
2023-03-05T14:32:52.806Z,5.99
2023-03-05T14:35:22.632Z,5.98
2023-03-05T14:37:51.564Z,5.95
2023-03-05T14:40:20.751Z,5.90
2023-03-05T14:42:53.201Z,5.84
2023-03-05T14:45:34.580Z,5.82
2023-03-05T14:48:03.403Z,5.80
2023-03-05T14:50:32.166Z,5.78
2023-03-05T14:53:07.743Z,5.78
2023-03-05T14:55:35.531Z,5.79
2023-03-05T14:58:13.219Z,5.82
2023-03-05T15:00:40.356Z,5.84
2023-03-05T15:03:06.855Z,5.84
2023-03-05T15:05:33.670Z,5.83
2023-03-05T15:08:00.279Z,5.80
2023-03-05T15:10:26.854Z,5.74
2023-03-05T15:12:53.310Z,5.70
2023-03-05T15:15:21.321Z,5.68
2023-03-05T15:17:50.113Z,5.65
2023-03-05T15:20:25.851Z,5.61
2023-03-05T15:22:53.117Z,5.58
2023-03-05T15:25:21.228Z,5.53
2023-03-05T15:27:47.897Z,5.46
2023-03-05T15:30:24.422Z,5.40
2023-03-05T15:32:52.923Z,5.35
2023-03-05T15:35:19.800Z,5.32
2023-03-05T15:37:46.694Z,5.28
2023-03-05T15:40:14.164Z,5.25
2023-03-05T15:42:40.944Z,5.23
2023-03-05T15:45:07.758Z,5.20
2023-03-05T15:47:34.324Z,5.18
2023-03-05T15:50:00.827Z,5.18
2023-03-05T15:52:27.334Z,5.16
2023-03-05T15:54:53.832Z,5.13
2023-03-05T15:57:20.871Z,5.11
2023-03-05T15:59:47.337Z,5.08
2023-03-05T16:02:13.853Z,5.06
2023-03-05T16:04:40.401Z,5.05
2023-03-05T16:07:08.160Z,5.02
2023-03-05T16:09:41.089Z,4.99
2023-03-05T16:12:12.729Z,4.95
2023-03-05T16:14:40.583Z,4.91
2023-03-05T16:17:07.868Z,4.85
2023-03-05T16:19:39.428Z,4.80
2023-03-05T16:22:05.909Z,4.75
2023-03-05T16:24:32.396Z,4.72
2023-03-05T16:26:59.196Z,4.67
2023-03-05T16:29:26.023Z,4.62
2023-03-05T16:31:52.532Z,4.55
2023-03-05T16:34:19.037Z,4.52
2023-03-05T16:36:51.424Z,4.47
2023-03-05T16:39:19.330Z,4.42
2023-03-05T16:41:45.992Z,4.38
2023-03-05T16:44:12.566Z,4.34
2023-03-05T16:46:39.696Z,4.30
2023-03-05T16:49:06.303Z,4.24
2023-03-05T16:51:32.850Z,4.17
2023-03-05T16:53:59.380Z,4.12
2023-03-05T16:56:25.908Z,4.08
2023-03-05T16:58:55.155Z,4.04
2023-03-05T17:01:23.063Z,3.99
2023-03-05T17:03:50.602Z,3.94
2023-03-05T17:06:22.992Z,3.92
2023-03-05T17:08:49.588Z,3.89
2023-03-05T17:11:16.869Z,3.86
2023-03-05T17:13:43.695Z,3.85
2023-03-05T17:16:12.220Z,3.81
2023-03-05T17:18:39.334Z,3.78
2023-03-05T17:21:08.218Z,3.75
2023-03-05T17:23:36.011Z,3.72
2023-03-05T17:26:08.150Z,3.70
2023-03-05T17:28:34.911Z,3.67
2023-03-05T17:31:01.556Z,3.65
2023-03-05T17:33:28.832Z,3.62
2023-03-05T17:35:55.938Z,3.59
2023-03-05T17:38:23.100Z,3.57
2023-03-05T17:40:50.119Z,3.56
2023-03-05T17:43:16.851Z,3.55
2023-03-05T17:45:43.575Z,3.52
2023-03-05T17:48:12.327Z,3.49
2023-03-05T17:50:38.830Z,3.47
2023-03-05T17:53:05.504Z,3.45
2023-03-05T17:55:32.366Z,3.43
2023-03-05T17:57:59.056Z,3.42
2023-03-05T18:00:29.448Z,3.44
2023-03-05T18:02:58.222Z,3.47
2023-03-05T18:05:25.370Z,3.49
2023-03-05T18:07:52.136Z,3.50
2023-03-05T18:10:21.178Z,3.51
2023-03-05T18:12:48.077Z,3.51
2023-03-05T18:15:17.854Z,3.50
2023-03-05T18:17:44.784Z,3.49
2023-03-05T18:20:36.497Z,3.50
2023-03-05T18:23:04.936Z,3.50
2023-03-05T18:25:31.920Z,3.49
2023-03-05T18:28:00.628Z,3.49
2023-03-05T18:30:27.849Z,3.50
2023-03-05T18:32:54.818Z,3.51
2023-03-05T18:35:22.643Z,3.53
2023-03-05T18:37:49.267Z,3.54
2023-03-05T18:40:21.310Z,3.53
2023-03-05T18:42:48.145Z,3.52
2023-03-05T18:45:16.932Z,3.52
2023-03-05T18:47:46.181Z,3.52
2023-03-05T18:50:15.421Z,3.52
2023-03-05T18:52:45.815Z,3.52
2023-03-05T18:55:17.387Z,3.52
2023-03-05T18:57:43.974Z,3.52
2023-03-05T19:00:16.087Z,3.51
2023-03-05T19:02:44.720Z,3.50
2023-03-05T19:05:13.242Z,3.49
2023-03-05T19:07:39.954Z,3.47
2023-03-05T19:10:07.741Z,3.45
2023-03-05T19:12:46.010Z,3.42
2023-03-05T19:15:13.348Z,3.40
2023-03-05T19:17:39.987Z,3.40
2023-03-05T19:20:07.401Z,3.39
2023-03-05T19:22:34.662Z,3.40
2023-03-05T19:25:01.203Z,3.39
2023-03-05T19:27:27.804Z,3.37
2023-03-05T19:29:54.436Z,3.36
2023-03-05T19:32:21.126Z,3.36
2023-03-05T19:34:48.152Z,3.36
2023-03-05T19:37:14.946Z,3.36
2023-03-05T19:39:42.058Z,3.35
2023-03-05T19:42:08.616Z,3.33
2023-03-05T19:44:35.500Z,3.33
2023-03-05T19:47:02.185Z,3.32
2023-03-05T19:49:28.715Z,3.32
2023-03-05T19:51:55.826Z,3.32
2023-03-05T19:54:23.313Z,3.33
2023-03-05T19:56:52.341Z,3.33
2023-03-05T19:59:20.889Z,3.32
2023-03-05T20:01:48.580Z,3.33
2023-03-05T20:04:21.463Z,3.33
2023-03-05T20:06:49.987Z,3.33
2023-03-05T20:09:17.194Z,3.33
2023-03-05T20:11:44.483Z,3.34
2023-03-05T20:14:11.377Z,3.35
2023-03-05T20:16:38.035Z,3.35
2023-03-05T20:19:06.341Z,3.35
2023-03-05T20:21:39.514Z,3.35
2023-03-05T20:24:10.313Z,3.33
2023-03-05T20:26:38.377Z,3.31
2023-03-05T20:29:05.402Z,3.27
2023-03-05T20:31:33.467Z,3.25
2023-03-05T20:34:00.023Z,3.23
2023-03-05T20:36:26.525Z,3.22
2023-03-05T20:38:53.007Z,3.20
2023-03-05T20:41:19.871Z,3.17
2023-03-05T20:43:49.043Z,3.15
2023-03-05T20:46:20.393Z,3.13
2023-03-05T20:48:48.658Z,3.12
2023-03-05T20:51:24.301Z,3.11
2023-03-05T20:53:52.771Z,3.12
2023-03-05T20:56:19.428Z,3.11
2023-03-05T20:58:46.103Z,3.10
2023-03-05T21:01:12.674Z,3.10
2023-03-05T21:03:39.179Z,3.10
2023-03-05T21:06:06.219Z,3.10
2023-03-05T21:08:32.888Z,3.09
2023-03-05T21:11:00.160Z,3.09
2023-03-05T21:13:26.874Z,3.07
2023-03-05T21:15:53.418Z,3.06
2023-03-05T21:18:19.897Z,3.05
2023-03-05T21:20:46.377Z,3.04
2023-03-05T21:23:12.920Z,3.04
2023-03-05T21:25:39.539Z,3.04
2023-03-05T21:28:08.787Z,3.03
2023-03-05T21:30:39.271Z,3.00
2023-03-05T21:33:08.819Z,2.97
2023-03-05T21:35:36.333Z,2.97
2023-03-05T21:38:04.916Z,2.95
2023-03-05T21:40:32.915Z,2.95
2023-03-05T21:42:59.695Z,2.96
2023-03-05T21:45:28.229Z,2.98
2023-03-05T21:47:55.164Z,3.00
2023-03-05T21:50:23.997Z,3.00
2023-03-05T21:52:51.378Z,3.00
2023-03-05T21:55:20.678Z,3.01
2023-03-05T21:57:47.273Z,3.04
2023-03-05T22:00:14.942Z,3.03
2023-03-05T22:02:42.035Z,3.04
2023-03-05T22:05:12.214Z,3.02
2023-03-05T22:07:43.037Z,2.99
2023-03-05T22:10:16.464Z,2.97
2023-03-05T22:13:03.449Z,2.95
2023-03-05T22:15:30.003Z,2.92
2023-03-05T22:17:56.648Z,2.92
2023-03-05T22:20:23.141Z,2.91
2023-03-05T22:22:49.866Z,2.90
2023-03-05T22:25:16.935Z,2.90
2023-03-05T22:27:44.558Z,2.90
2023-03-05T22:30:12.793Z,2.92
2023-03-05T22:32:39.366Z,2.93
2023-03-05T22:35:06.972Z,2.95
2023-03-05T22:37:33.613Z,2.97
2023-03-05T22:40:00.127Z,2.98
2023-03-05T22:42:26.767Z,2.99
2023-03-05T22:44:57.650Z,2.99
2023-03-05T22:47:25.653Z,3.01
2023-03-05T22:49:52.377Z,3.01
2023-03-05T22:52:19.756Z,2.98
2023-03-05T22:54:46.293Z,2.95
2023-03-05T22:57:12.869Z,2.96
2023-03-05T22:59:39.398Z,2.94
2023-03-05T23:02:05.952Z,2.94
2023-03-05T23:04:43.210Z,2.92
2023-03-05T23:07:09.695Z,2.90
2023-03-05T23:09:36.403Z,2.90
2023-03-05T23:12:02.927Z,2.92
2023-03-05T23:14:29.440Z,2.91
2023-03-05T23:16:55.935Z,2.92
2023-03-05T23:19:22.428Z,2.90
2023-03-05T23:21:48.907Z,2.90
2023-03-05T23:24:15.422Z,2.91
2023-03-05T23:26:41.927Z,2.92
2023-03-05T23:29:08.384Z,2.93
2023-03-05T23:31:34.935Z,2.96
2023-03-05T23:34:01.453Z,2.97
2023-03-05T23:36:27.943Z,2.98
2023-03-05T23:38:54.414Z,3.00
2023-03-05T23:41:20.905Z,3.00
2023-03-05T23:43:47.365Z,2.99
2023-03-05T23:46:13.936Z,2.99
2023-03-05T23:48:41.844Z,2.98
2023-03-05T23:51:09.654Z,2.98
2023-03-05T23:53:36.540Z,2.96
2023-03-05T23:56:08.764Z,2.96
2023-03-05T23:58:36.260Z,2.95
